»·PEaware :: DAL213 KJAC-KSLC

DAL213 :: KJAC-KSLC

FLIGHT INFORMATION

Flight Status: Arrived
Operator:
Delta Air Lines
More flights by this operator :: More flights under this callsign
Pilot: Nicolas L. (9332)
Aircraft: BOEING 737-800
(B738)
More flights by this aircraft type
Origin: KJAC Jackson Hole
United States
Destination: KSLC Salt Lake City Intl
United States
More flights between these airports :: More routes between these airports
Route: ALPIN2 KICNE LHO LHO4
File this flight plan on PilotEdge
Remarks: Live Streaming on Twith "DAL213" and YT
Altitude:
(Current/Filed)
22,000ft
Speed:
(Current/Filed)
400kts
Departed: 07-May-18 09:14 PM
Arrived: 07-May-18 09:49 PM
Distance/Time
Traveled:
178nm/0:35
Distance/Time
To Go:
Arrived

Flight Plot

Page will automatically refresh every two minutes.

Flight plan parsing failed; only flown route is shown


Map Options




Map Legend


Flown Route
Filed Route
Departure Airport
Arrival Airport
Navaid (VOR, NDB)
Fix

Horizontal Profiles

Position Reports

Time Latitude Longitude Heading Altitude Ground
Speed
07-May-18 21:04 43.601557 -110.738957 19 6460ft 0kts
07-May-18 21:05 43.601559 -110.738956 19 6460ft 0kts
07-May-18 21:06 43.601560 -110.738955 19 6460ft 0kts
07-May-18 21:07 43.601562 -110.738954 19 6460ft 0kts
07-May-18 21:08 43.602077 -110.738696 19 6459ft 11kts
07-May-18 21:09 43.605610 -110.737020 18 6459ft 10kts
07-May-18 21:10 43.608570 -110.735556 16 6460ft 15kts
07-May-18 21:11 43.612709 -110.733510 18 6459ft 12kts
07-May-18 21:12 43.614929 -110.732580 333 6459ft 0kts
07-May-18 21:13 43.610573 -110.736270 200 6460ft 98kts
07-May-18 21:14 43.568647 -110.763014 211 8170ft 199kts
07-May-18 21:15 43.513080 -110.802771 207 10494ft 255kts
07-May-18 21:17 43.442030 -110.848244 208 12690ft 312kts
07-May-18 21:18 43.355696 -110.902502 208 14810ft 360kts
07-May-18 21:19 43.262925 -110.960430 208 16323ft 370kts
07-May-18 21:20 43.168457 -111.024650 213 19208ft 386kts
07-May-18 21:21 43.072047 -111.095620 213 21836ft 402kts
07-May-18 21:22 42.969668 -111.170365 213 22258ft 425kts
07-May-18 21:23 42.864831 -111.246619 212 22266ft 426kts
07-May-18 21:24 42.760254 -111.322388 212 22267ft 426kts
07-May-18 21:25 42.655541 -111.397970 212 22268ft 426kts
07-May-18 21:26 42.550385 -111.473561 212 22259ft 426kts
07-May-18 21:27 42.445656 -111.548581 212 22253ft 426kts
07-May-18 21:28 42.340507 -111.623600 212 22244ft 426kts
07-May-18 21:29 42.235509 -111.698234 212 22231ft 427kts
07-May-18 21:30 42.130397 -111.772661 212 22223ft 427kts
07-May-18 21:31 42.024873 -111.847099 212 22211ft 427kts
07-May-18 21:32 41.919602 -111.921079 212 22198ft 427kts
07-May-18 21:33 41.814044 -111.994214 207 22193ft 430kts
07-May-18 21:34 41.694460 -112.024367 191 22192ft 440kts
07-May-18 21:35 41.572830 -112.044075 191 22183ft 441kts
07-May-18 21:36 41.450721 -112.063188 190 22178ft 441kts
07-May-18 21:37 41.328942 -112.082054 190 22169ft 441kts
07-May-18 21:38 41.207563 -112.103220 197 21893ft 433kts
07-May-18 21:39 41.093113 -112.141229 198 19773ft 414kts
07-May-18 21:40 40.982883 -112.116521 152 18066ft 429kts
07-May-18 21:41 40.879747 -112.043271 155 15486ft 408kts
07-May-18 21:42 40.790084 -111.965424 139 12214ft 361kts
07-May-18 21:43 40.713504 -111.947551 234 9573ft 290kts
07-May-18 21:44 40.697295 -112.040962 226 7542ft 252kts
07-May-18 21:45 40.662844 -112.009410 49 6432ft 186kts
07-May-18 21:46 40.701105 -111.981682 24 5507ft 149kts
07-May-18 21:47 40.739853 -111.970007 1 4853ft 153kts
07-May-18 21:48 40.781657 -111.973926 354 4236ft 133kts
07-May-18 21:49 40.792451 -111.976911 261 4236ft 14kts
07-May-18 21:50 40.790027 -111.977116 175 4236ft 4kts
07-May-18 21:51 40.789728 -111.977085 175 4236ft 0kts
07-May-18 21:52 40.789726 -111.977085 175 4236ft 0kts
07-May-18 21:53 40.789724 -111.977085 175 4236ft 0kts
07-May-18 21:54 40.789722 -111.977085 175 4236ft 0kts
07-May-18 21:55 40.789720 -111.977084 175 4236ft 0kts
07-May-18 21:56 40.789718 -111.977084 175 4236ft 0kts
07-May-18 21:57 40.789716 -111.977084 175 4236ft 0kts
07-May-18 21:58 40.789714 -111.977084 175 4236ft 0kts
07-May-18 21:59 40.789712 -111.977084 175 4236ft 0kts

Navigation Log

Ident Type
Flight plan parsing failed, navigation log unavailable